Terminal Aerodrome Forecast
Issued by NWS

Home | Current Version | Previous Version | Text Only | Print | Product List | Glossary On
Versions: 1 2 3 4 5 6 7 8 9 10 11 12 13 14 15 16 17 18 19 20 21 22 23 24 25 26 27 28 29 30 31 32 33 34 35 36 37 38 39 40 41 42 43 44 45 46 47 48 49 50
000
FTUS45 KBOU 070436 AAC
TAFAPA
TAF AMD
KAPA 070436Z 0705/0724 14010KT 3SM -SN SCT015 OVC030
      TEMPO 0705/0707 3/4SM -SN OVC015
     FM070700 08011KT 2SM -SN BR BKN009 OVC018
      TEMPO 0707/0711 1/2SM -SN FZFG OVC006
     FM071500 04010KT 3SM -SN BKN012 OVC020
     FM071700 36008KT P6SM VCSH BKN025 OVC040=

USA.gov is the U.S. government's official web portal to all federal, state and local government web resources and services.